createdAt,value
2023-01-20T00:01:23.331Z,-0.30
2023-01-20T00:03:50.574Z,-0.30
2023-01-20T00:06:17.117Z,-0.30
2023-01-20T00:08:43.727Z,-0.20
2023-01-20T00:11:10.213Z,-0.20
2023-01-20T00:13:36.918Z,-0.20
2023-01-20T00:16:03.687Z,-0.30
2023-01-20T00:18:30.233Z,-0.30
2023-01-20T00:20:56.693Z,-0.20
2023-01-20T00:23:23.161Z,-0.20
2023-01-20T00:25:49.670Z,-0.20
2023-01-20T00:28:16.165Z,-0.20
2023-01-20T00:30:42.668Z,-0.30
2023-01-20T00:33:09.189Z,-0.20
2023-01-20T00:35:35.657Z,-0.20
2023-01-20T00:38:02.173Z,-0.30
2023-01-20T00:40:28.641Z,-0.30
2023-01-20T00:42:55.129Z,-0.30
2023-01-20T00:45:21.588Z,-0.30
2023-01-20T00:47:48.082Z,-0.30
2023-01-20T00:50:14.581Z,-0.30
2023-01-20T00:52:41.068Z,-0.30
2023-01-20T00:55:07.527Z,-0.30
2023-01-20T00:57:34.025Z,-0.30
2023-01-20T01:00:00.525Z,-0.30
2023-01-20T01:02:27.049Z,-0.40
2023-01-20T01:04:53.557Z,-0.40
2023-01-20T01:07:20.086Z,-0.40
2023-01-20T01:09:46.621Z,-0.30
2023-01-20T01:12:13.277Z,-0.30
2023-01-20T01:14:39.830Z,-0.40
2023-01-20T01:17:06.340Z,-0.40
2023-01-20T01:19:32.834Z,-0.30
2023-01-20T01:21:59.296Z,-0.40
2023-01-20T01:24:25.791Z,-0.40
2023-01-20T01:26:52.292Z,-0.30
2023-01-20T01:29:18.782Z,-0.30
2023-01-20T01:31:45.337Z,-0.40
2023-01-20T01:34:11.969Z,-0.30
2023-01-20T01:36:38.573Z,-0.30
2023-01-20T01:39:05.126Z,-0.30
2023-01-20T01:41:31.614Z,-0.30
2023-01-20T01:43:58.109Z,-0.30
2023-01-20T01:46:24.564Z,-0.40
2023-01-20T01:48:51.044Z,-0.40
2023-01-20T01:51:17.547Z,-0.40
2023-01-20T01:53:44.062Z,-0.50
2023-01-20T01:56:10.541Z,-0.40
2023-01-20T01:58:37.118Z,-0.40
2023-01-20T02:01:03.696Z,-0.40
2023-01-20T02:03:30.299Z,-0.40
2023-01-20T02:05:56.788Z,-0.40
2023-01-20T02:08:23.287Z,-0.30
2023-01-20T02:10:49.774Z,-0.30
2023-01-20T02:13:16.277Z,-0.20
2023-01-20T02:15:42.778Z,-0.20
2023-01-20T02:18:09.262Z,-0.20
2023-01-20T02:20:35.904Z,-0.20
2023-01-20T02:23:02.372Z,-0.20
2023-01-20T02:25:28.843Z,-0.20
2023-01-20T02:27:55.364Z,-0.20
2023-01-20T02:30:21.859Z,-0.20
2023-01-20T02:32:48.512Z,-0.20
2023-01-20T02:35:15.171Z,-0.20
2023-01-20T02:37:41.866Z,-0.20
2023-01-20T02:40:08.406Z,-0.10
2023-01-20T02:42:34.875Z,-0.10
2023-01-20T02:45:01.372Z,-0.20
2023-01-20T02:47:27.839Z,-0.10
2023-01-20T02:49:54.351Z,-0.10
2023-01-20T02:52:20.873Z,-0.10
2023-01-20T02:54:47.413Z,-0.10
2023-01-20T02:57:13.885Z,-0.10
2023-01-20T02:59:40.395Z,0.00
2023-01-20T03:02:06.939Z,0.00
2023-01-20T03:04:33.479Z,-0.10
2023-01-20T03:06:59.931Z,-0.10
2023-01-20T03:09:26.407Z,0.00
2023-01-20T03:11:52.919Z,0.00
2023-01-20T03:14:19.410Z,0.10
2023-01-20T03:16:48.182Z,0.00
2023-01-20T03:19:14.764Z,0.00
2023-01-20T03:21:41.233Z,0.00
2023-01-20T03:24:07.730Z,0.00
2023-01-20T03:26:34.203Z,0.00
2023-01-20T03:29:00.709Z,0.00
2023-01-20T03:31:27.302Z,0.00
2023-01-20T03:33:53.853Z,0.00
2023-01-20T03:36:20.307Z,0.10
2023-01-20T03:38:46.803Z,0.00
2023-01-20T03:41:13.307Z,0.00
2023-01-20T03:43:39.815Z,0.00
2023-01-20T03:46:06.306Z,0.00
2023-01-20T03:48:32.782Z,0.00
2023-01-20T03:50:59.353Z,0.00
2023-01-20T03:53:26.084Z,0.00
2023-01-20T03:55:52.551Z,0.00
2023-01-20T03:58:20.575Z,0.00
2023-01-20T04:00:47.128Z,0.00
2023-01-20T04:03:13.645Z,0.00
2023-01-20T04:05:40.269Z,0.00
2023-01-20T04:08:06.737Z,-0.10
2023-01-20T04:10:33.212Z,-0.20
2023-01-20T04:12:59.680Z,-0.20
2023-01-20T04:15:26.634Z,-0.20
2023-01-20T04:17:53.729Z,-0.20
2023-01-20T04:20:20.236Z,-0.20
2023-01-20T04:22:46.692Z,-0.20
2023-01-20T04:25:13.473Z,-0.20
2023-01-20T04:27:40.183Z,-0.30
2023-01-20T04:30:06.739Z,-0.30
2023-01-20T04:32:33.210Z,-0.30
2023-01-20T04:34:59.845Z,-0.30
2023-01-20T04:37:26.412Z,-0.20
2023-01-20T04:39:53.636Z,-0.30
2023-01-20T04:42:20.116Z,-0.30
2023-01-20T04:44:46.587Z,-0.20
2023-01-20T04:47:13.051Z,-0.30
2023-01-20T04:49:39.535Z,-0.20
2023-01-20T04:52:06.001Z,-0.30
2023-01-20T04:54:32.527Z,-0.30
2023-01-20T04:56:59.008Z,-0.30
2023-01-20T04:59:25.461Z,-0.30
2023-01-20T05:01:52.110Z,-0.30
2023-01-20T05:04:18.716Z,-0.20
2023-01-20T05:06:45.273Z,-0.20
2023-01-20T05:09:11.780Z,-0.20
2023-01-20T05:11:38.254Z,-0.20
2023-01-20T05:14:04.790Z,-0.20
2023-01-20T05:16:32.264Z,-0.20
2023-01-20T05:18:58.757Z,-0.20
2023-01-20T05:21:25.262Z,-0.20
2023-01-20T05:23:51.737Z,-0.10
2023-01-20T05:26:18.234Z,-0.20
2023-01-20T05:28:44.697Z,-0.20
2023-01-20T05:31:11.273Z,-0.20
2023-01-20T05:33:39.687Z,-0.30
2023-01-20T05:36:06.274Z,-0.30
2023-01-20T05:38:32.790Z,-0.20
2023-01-20T05:40:59.271Z,-0.20
2023-01-20T05:43:25.777Z,-0.20
2023-01-20T05:45:52.278Z,-0.20
2023-01-20T05:48:18.763Z,-0.10
2023-01-20T05:50:45.252Z,-0.10
2023-01-20T05:53:11.720Z,-0.10
2023-01-20T05:55:38.240Z,-0.20
2023-01-20T05:58:04.926Z,-0.20
2023-01-20T06:00:31.611Z,-0.30
2023-01-20T06:02:58.117Z,-0.20
2023-01-20T06:05:24.609Z,-0.20
2023-01-20T06:07:51.165Z,-0.20
2023-01-20T06:10:17.666Z,-0.10
2023-01-20T06:12:44.138Z,-0.10
2023-01-20T06:15:10.631Z,-0.10
2023-01-20T06:17:37.103Z,-0.20
2023-01-20T06:20:04.378Z,-0.10
2023-01-20T06:22:30.892Z,-0.20
2023-01-20T06:24:57.341Z,-0.20
2023-01-20T06:27:23.914Z,-0.30
2023-01-20T06:29:50.803Z,-0.20
2023-01-20T06:32:17.329Z,-0.20
2023-01-20T06:34:43.791Z,-0.20
2023-01-20T06:37:10.296Z,-0.20
2023-01-20T06:39:37.505Z,-0.20
2023-01-20T06:42:04.014Z,-0.20
2023-01-20T06:44:30.610Z,-0.20
2023-01-20T06:46:57.928Z,-0.20
2023-01-20T06:49:24.405Z,-0.20
2023-01-20T06:51:50.924Z,-0.20
2023-01-20T06:54:17.387Z,-0.20
2023-01-20T06:56:43.935Z,-0.20
2023-01-20T06:59:10.437Z,-0.20
2023-01-20T07:01:36.976Z,-0.30
2023-01-20T07:04:03.498Z,-0.30
2023-01-20T07:06:30.005Z,-0.30
2023-01-20T07:08:58.676Z,-0.30
2023-01-20T07:11:25.427Z,-0.30
2023-01-20T07:13:51.902Z,-0.30
2023-01-20T07:16:18.438Z,-0.20
2023-01-20T07:18:45.031Z,-0.20
2023-01-20T07:21:11.579Z,-0.10
2023-01-20T07:23:38.058Z,-0.10
2023-01-20T07:26:04.580Z,-0.10
2023-01-20T07:28:31.308Z,-0.20
2023-01-20T07:30:57.933Z,-0.20
2023-01-20T07:33:24.498Z,-0.20
2023-01-20T07:35:50.969Z,-0.20
2023-01-20T07:38:17.462Z,-0.20
2023-01-20T07:40:43.934Z,-0.20
2023-01-20T07:43:10.422Z,-0.30
2023-01-20T07:45:36.946Z,-0.30
2023-01-20T07:48:03.853Z,-0.30
2023-01-20T07:50:30.424Z,-0.40
2023-01-20T07:52:56.910Z,-0.40
2023-01-20T07:55:25.096Z,-0.50
2023-01-20T07:57:51.794Z,-0.50
2023-01-20T08:00:18.268Z,-0.50
2023-01-20T08:02:44.772Z,-0.60
2023-01-20T08:05:11.246Z,-0.50
2023-01-20T08:07:37.734Z,-0.50
2023-01-20T08:10:04.235Z,-0.60
2023-01-20T08:12:30.939Z,-0.50
2023-01-20T08:14:57.427Z,-0.50
2023-01-20T08:17:23.989Z,-0.50
2023-01-20T08:19:50.466Z,-0.40
2023-01-20T08:22:17.006Z,-0.40
2023-01-20T08:24:43.528Z,-0.30
2023-01-20T08:27:10.029Z,-0.20
2023-01-20T08:29:36.500Z,-0.10
2023-01-20T08:32:02.974Z,0.00
2023-01-20T08:34:29.474Z,0.10
2023-01-20T08:36:57.452Z,0.20
2023-01-20T08:39:24.042Z,0.20
2023-01-20T08:41:50.569Z,0.20
2023-01-20T08:44:17.084Z,0.20
2023-01-20T08:46:43.624Z,0.20
2023-01-20T08:49:10.085Z,0.20
2023-01-20T08:51:36.668Z,0.20
2023-01-20T08:54:03.197Z,0.20
2023-01-20T08:56:29.757Z,0.10
2023-01-20T08:58:56.256Z,0.20
2023-01-20T09:01:22.777Z,0.20
2023-01-20T09:04:03.740Z,0.20
2023-01-20T09:06:31.173Z,0.30
2023-01-20T09:08:57.708Z,0.30
2023-01-20T09:11:27.456Z,0.40
2023-01-20T09:13:53.952Z,0.40
2023-01-20T09:16:20.596Z,0.40
2023-01-20T09:18:47.132Z,0.50
2023-01-20T09:21:13.671Z,0.50
2023-01-20T09:23:40.210Z,0.50
2023-01-20T09:26:06.683Z,0.50
2023-01-20T09:28:33.302Z,0.50
2023-01-20T09:31:00.054Z,0.60
2023-01-20T09:33:26.639Z,0.60
2023-01-20T09:35:53.123Z,0.50
2023-01-20T09:38:38.460Z,0.50
2023-01-20T09:41:23.863Z,0.50
2023-01-20T09:43:56.815Z,0.50
2023-01-20T09:46:23.315Z,0.50
2023-01-20T09:49:08.671Z,0.50
2023-01-20T09:51:53.826Z,0.50
2023-01-20T09:54:20.369Z,0.40
2023-01-20T09:56:46.924Z,0.40
2023-01-20T09:59:13.520Z,0.40
2023-01-20T10:01:40.089Z,0.40
2023-01-20T10:04:06.628Z,0.40
2023-01-20T10:06:33.149Z,0.50
2023-01-20T10:09:05.608Z,0.50
2023-01-20T10:11:32.937Z,0.70
2023-01-20T10:13:59.542Z,0.80
2023-01-20T10:16:26.033Z,0.80
2023-01-20T10:18:52.629Z,0.90
2023-01-20T10:21:19.328Z,0.90
2023-01-20T10:23:45.877Z,1.00
2023-01-20T10:26:12.380Z,1.00
2023-01-20T10:28:38.945Z,1.00
2023-01-20T10:31:05.592Z,1.10
2023-01-20T10:33:32.146Z,1.20
2023-01-20T10:35:58.623Z,1.40
2023-01-20T10:38:25.140Z,1.60
2023-01-20T10:40:51.650Z,1.70
2023-01-20T10:43:18.185Z,1.80
2023-01-20T10:45:44.677Z,1.70
2023-01-20T10:48:11.162Z,1.70
2023-01-20T10:50:37.638Z,1.70
2023-01-20T10:53:04.187Z,1.80
2023-01-20T10:55:30.772Z,1.90
2023-01-20T10:57:57.263Z,2.20
2023-01-20T11:00:23.772Z,2.60
2023-01-20T11:02:52.265Z,2.80
2023-01-20T11:05:18.777Z,3.10
2023-01-20T11:07:45.299Z,3.20
2023-01-20T11:10:11.787Z,3.40
2023-01-20T11:12:38.319Z,3.60
2023-01-20T11:15:04.846Z,3.60
2023-01-20T11:17:31.312Z,3.50
2023-01-20T11:19:57.800Z,3.60
2023-01-20T11:22:24.295Z,3.60
2023-01-20T11:24:50.849Z,3.60
2023-01-20T11:27:17.397Z,3.60
2023-01-20T11:29:43.918Z,3.70
2023-01-20T11:32:10.489Z,3.80
2023-01-20T11:34:38.740Z,3.60
2023-01-20T11:37:05.279Z,3.60
2023-01-20T11:39:33.481Z,3.80
2023-01-20T11:41:59.960Z,3.70
2023-01-20T11:44:26.552Z,3.70
2023-01-20T11:46:53.129Z,3.50
2023-01-20T11:49:19.813Z,3.50
2023-01-20T11:51:46.302Z,3.50
2023-01-20T11:54:12.816Z,3.60
2023-01-20T11:56:39.316Z,3.70
2023-01-20T11:59:05.894Z,3.80
2023-01-20T12:01:32.390Z,4.00
2023-01-20T12:03:58.943Z,4.00
2023-01-20T12:06:25.522Z,4.10
2023-01-20T12:08:52.093Z,4.10
2023-01-20T12:11:18.571Z,4.20
2023-01-20T12:14:03.892Z,4.30
2023-01-20T12:16:30.396Z,4.30
2023-01-20T12:19:02.249Z,4.10
2023-01-20T12:21:29.379Z,4.00
2023-01-20T12:23:55.872Z,4.00
2023-01-20T12:26:22.424Z,4.00
2023-01-20T12:28:50.805Z,3.90
2023-01-20T12:31:20.066Z,3.50
2023-01-20T12:33:46.618Z,3.10
2023-01-20T12:36:13.097Z,2.80
2023-01-20T12:38:39.563Z,2.70
2023-01-20T12:41:06.105Z,2.90
2023-01-20T12:43:32.650Z,2.80
2023-01-20T12:45:59.556Z,2.60
2023-01-20T12:48:26.112Z,2.60
2023-01-20T12:50:52.588Z,2.60
2023-01-20T12:53:19.059Z,2.70
2023-01-20T12:55:45.582Z,2.80
2023-01-20T12:58:12.043Z,3.00
2023-01-20T13:00:38.547Z,3.20
2023-01-20T13:03:05.054Z,3.30
2023-01-20T13:05:31.615Z,3.10
2023-01-20T13:07:58.261Z,2.90
2023-01-20T13:10:24.735Z,2.80
2023-01-20T13:12:51.227Z,2.90
2023-01-20T13:15:17.965Z,3.00
2023-01-20T13:17:44.457Z,3.10
2023-01-20T13:20:10.972Z,2.90
2023-01-20T13:22:37.452Z,2.90
2023-01-20T13:25:04.770Z,2.70
2023-01-20T13:27:31.291Z,2.60
2023-01-20T13:29:58.263Z,2.40
2023-01-20T13:32:24.803Z,2.20
2023-01-20T13:34:51.300Z,2.00
2023-01-20T13:37:17.771Z,1.80
2023-01-20T13:39:44.261Z,1.70
2023-01-20T13:42:10.741Z,1.60
2023-01-20T13:44:37.289Z,1.70
2023-01-20T13:47:03.766Z,1.70
2023-01-20T13:49:30.340Z,1.70
2023-01-20T13:51:56.903Z,1.80
2023-01-20T13:54:28.955Z,1.80
2023-01-20T13:56:55.490Z,1.90
2023-01-20T13:59:21.985Z,1.90
2023-01-20T14:01:48.526Z,2.00
2023-01-20T14:04:15.004Z,2.10
2023-01-20T14:06:41.531Z,2.10
2023-01-20T14:09:09.367Z,2.00
2023-01-20T14:11:35.947Z,1.90
2023-01-20T14:14:02.446Z,1.90
2023-01-20T14:16:28.997Z,1.70
2023-01-20T14:18:55.549Z,1.70
2023-01-20T14:21:22.185Z,1.70
2023-01-20T14:23:48.723Z,1.70
2023-01-20T14:26:15.316Z,1.60
2023-01-20T14:28:41.831Z,1.60
2023-01-20T14:31:08.400Z,1.60
2023-01-20T14:33:34.948Z,1.60
2023-01-20T14:36:01.470Z,1.60
2023-01-20T14:38:28.007Z,1.60
2023-01-20T14:40:54.600Z,1.50
2023-01-20T14:43:21.815Z,1.50
2023-01-20T14:45:48.424Z,1.40
2023-01-20T14:48:28.134Z,1.30
2023-01-20T14:50:56.057Z,1.30
2023-01-20T14:53:22.570Z,1.30
2023-01-20T14:55:49.117Z,1.40
2023-01-20T14:58:15.604Z,1.30
2023-01-20T15:00:42.113Z,1.40
2023-01-20T15:03:11.714Z,1.30
2023-01-20T15:05:38.832Z,1.30
2023-01-20T15:08:08.348Z,1.30
2023-01-20T15:10:34.845Z,1.30
2023-01-20T15:13:01.388Z,1.30
2023-01-20T15:15:27.971Z,1.30
2023-01-20T15:17:54.452Z,1.30
2023-01-20T15:20:20.980Z,1.30
2023-01-20T15:22:47.472Z,1.30
2023-01-20T15:25:13.990Z,1.30
2023-01-20T15:27:40.484Z,1.30
2023-01-20T15:30:07.127Z,1.30
2023-01-20T15:32:33.735Z,1.30
2023-01-20T15:35:00.232Z,1.30
2023-01-20T15:37:27.063Z,1.30
2023-01-20T15:39:54.175Z,1.30
2023-01-20T15:42:20.718Z,1.20
2023-01-20T15:44:47.288Z,1.20
2023-01-20T15:47:13.839Z,1.20
2023-01-20T15:49:40.313Z,1.20
2023-01-20T15:52:06.825Z,1.10
2023-01-20T15:54:33.347Z,1.10
2023-01-20T15:56:59.901Z,1.10
2023-01-20T15:59:29.970Z,1.10
2023-01-20T16:01:56.561Z,1.10
2023-01-20T16:04:23.056Z,1.10
2023-01-20T16:06:49.545Z,1.00
2023-01-20T16:09:16.127Z,1.00
2023-01-20T16:11:42.630Z,1.00
2023-01-20T16:14:09.103Z,1.00
2023-01-20T16:16:35.684Z,1.00
2023-01-20T16:19:02.232Z,1.00
2023-01-20T16:21:28.783Z,1.00
2023-01-20T16:23:55.284Z,1.00
2023-01-20T16:26:24.785Z,1.00
2023-01-20T16:28:51.372Z,1.00
2023-01-20T16:31:17.989Z,0.90
2023-01-20T16:33:44.553Z,0.90
2023-01-20T16:36:11.064Z,0.90
2023-01-20T16:38:38.041Z,0.80
2023-01-20T16:41:04.549Z,0.70
2023-01-20T16:43:31.042Z,0.70
2023-01-20T16:45:57.768Z,0.60
2023-01-20T16:48:24.415Z,0.50
2023-01-20T16:50:50.942Z,0.40
2023-01-20T16:53:17.526Z,0.30
2023-01-20T16:55:44.007Z,0.20
2023-01-20T16:58:10.535Z,0.20
2023-01-20T17:00:37.077Z,0.10
2023-01-20T17:03:03.812Z,0.10
2023-01-20T17:05:30.321Z,0.00
2023-01-20T17:07:57.264Z,0.00
2023-01-20T17:10:23.784Z,0.00
2023-01-20T17:12:50.288Z,0.00
2023-01-20T17:15:16.796Z,0.00
2023-01-20T17:17:43.329Z,0.00
2023-01-20T17:20:13.335Z,-0.10
2023-01-20T17:22:40.128Z,-0.10
2023-01-20T17:25:06.608Z,-0.10
2023-01-20T17:27:33.156Z,-0.20
2023-01-20T17:29:59.631Z,-0.10
2023-01-20T17:32:26.114Z,-0.20
2023-01-20T17:34:52.611Z,-0.20
2023-01-20T17:37:19.138Z,-0.20
2023-01-20T17:39:46.099Z,-0.30
2023-01-20T17:42:12.594Z,-0.30
2023-01-20T17:44:39.303Z,-0.30
2023-01-20T17:47:05.854Z,-0.30
2023-01-20T17:49:32.347Z,-0.30
2023-01-20T17:51:58.835Z,-0.30
2023-01-20T17:54:25.299Z,-0.30
2023-01-20T17:56:51.784Z,-0.30
2023-01-20T17:59:18.460Z,-0.40
2023-01-20T18:01:44.964Z,-0.40
2023-01-20T18:04:11.466Z,-0.40
2023-01-20T18:06:38.008Z,-0.40
2023-01-20T18:09:04.496Z,-0.40
2023-01-20T18:11:31.194Z,-0.40
2023-01-20T18:13:57.743Z,-0.50
2023-01-20T18:16:24.305Z,-0.50
2023-01-20T18:18:50.868Z,-0.50
2023-01-20T18:21:17.348Z,-0.60
2023-01-20T18:23:43.909Z,-0.60
2023-01-20T18:26:10.383Z,-0.60
2023-01-20T18:28:36.922Z,-0.60
2023-01-20T18:31:08.178Z,-0.60
2023-01-20T18:33:38.116Z,-0.70
2023-01-20T18:36:04.629Z,-0.70
2023-01-20T18:38:31.097Z,-0.70
2023-01-20T18:40:57.550Z,-0.70
2023-01-20T18:43:24.031Z,-0.80
2023-01-20T18:45:50.524Z,-0.70
2023-01-20T18:48:17.080Z,-0.70
2023-01-20T18:50:43.589Z,-0.70
2023-01-20T18:53:10.068Z,-0.70
2023-01-20T18:55:36.529Z,-0.70
2023-01-20T18:58:03.840Z,-0.70
2023-01-20T19:00:30.453Z,-0.70
2023-01-20T19:02:58.283Z,-0.70
2023-01-20T19:05:24.956Z,-0.70
2023-01-20T19:07:51.478Z,-0.70
2023-01-20T19:10:18.165Z,-0.70
2023-01-20T19:12:44.908Z,-0.80
2023-01-20T19:15:11.415Z,-0.80
2023-01-20T19:17:37.926Z,-0.80
2023-01-20T19:20:04.716Z,-0.80
2023-01-20T19:22:31.340Z,-0.80
2023-01-20T19:24:58.839Z,-0.90
2023-01-20T19:27:26.381Z,-0.90
2023-01-20T19:29:53.662Z,-0.90
2023-01-20T19:32:20.143Z,-0.90
2023-01-20T19:34:47.002Z,-0.90
2023-01-20T19:37:13.531Z,-0.90
2023-01-20T19:39:40.035Z,-0.90
2023-01-20T19:42:06.506Z,-0.90
2023-01-20T19:44:33.005Z,-0.90
2023-01-20T19:47:04.033Z,-0.90
2023-01-20T19:49:30.573Z,-0.90
2023-01-20T19:51:57.401Z,-0.90
2023-01-20T19:54:28.336Z,-1.00
2023-01-20T19:56:54.952Z,-1.00
2023-01-20T19:59:21.672Z,-1.00
2023-01-20T20:01:48.270Z,-1.00
2023-01-20T20:04:14.941Z,-1.10
2023-01-20T20:06:44.150Z,-1.10
2023-01-20T20:09:11.577Z,-1.20
2023-01-20T20:11:38.121Z,-1.20
2023-01-20T20:14:04.654Z,-1.20
2023-01-20T20:16:31.195Z,-1.20
2023-01-20T20:18:57.696Z,-1.20
2023-01-20T20:21:24.226Z,-1.20
2023-01-20T20:23:50.747Z,-1.20
2023-01-20T20:26:17.295Z,-1.20
2023-01-20T20:28:43.939Z,-1.20
2023-01-20T20:31:10.577Z,-1.30
2023-01-20T20:33:37.637Z,-1.30
2023-01-20T20:36:04.111Z,-1.30
2023-01-20T20:38:30.612Z,-1.30
2023-01-20T20:40:57.846Z,-1.30
2023-01-20T20:43:25.165Z,-1.40
2023-01-20T20:45:51.757Z,-1.40
2023-01-20T20:48:18.268Z,-1.40
2023-01-20T20:50:45.836Z,-1.40
2023-01-20T20:53:12.343Z,-1.40
2023-01-20T20:55:38.881Z,-1.40
2023-01-20T20:58:05.391Z,-1.40
2023-01-20T21:00:31.905Z,-1.40
2023-01-20T21:02:58.515Z,-1.40
2023-01-20T21:05:25.056Z,-1.40
2023-01-20T21:07:51.548Z,-1.50
2023-01-20T21:10:18.357Z,-1.50
2023-01-20T21:12:45.692Z,-1.50
2023-01-20T21:15:12.397Z,-1.50
2023-01-20T21:17:38.946Z,-1.60
2023-01-20T21:20:05.451Z,-1.60
2023-01-20T21:22:35.153Z,-1.60
2023-01-20T21:25:01.665Z,-1.60
2023-01-20T21:27:28.193Z,-1.60
2023-01-20T21:29:54.706Z,-1.60
2023-01-20T21:32:21.236Z,-1.60
2023-01-20T21:34:47.733Z,-1.70
2023-01-20T21:37:14.212Z,-1.70
2023-01-20T21:39:40.757Z,-1.70
2023-01-20T21:42:08.992Z,-1.80
2023-01-20T21:44:36.380Z,-1.80
2023-01-20T21:47:03.197Z,-1.80
2023-01-20T21:49:48.580Z,-1.80
2023-01-20T21:52:33.724Z,-1.80
2023-01-20T21:55:00.297Z,-1.80
2023-01-20T21:57:26.978Z,-1.80
2023-01-20T21:59:53.743Z,-1.80
2023-01-20T22:02:20.551Z,-1.70
2023-01-20T22:04:49.322Z,-1.70
2023-01-20T22:07:17.283Z,-1.70
2023-01-20T22:09:43.819Z,-1.80
2023-01-20T22:12:10.303Z,-1.80
2023-01-20T22:14:36.906Z,-1.80
2023-01-20T22:17:03.473Z,-1.80
2023-01-20T22:19:29.987Z,-1.80
2023-01-20T22:21:56.818Z,-1.90
2023-01-20T22:24:23.402Z,-1.90
2023-01-20T22:26:49.907Z,-1.90
2023-01-20T22:29:16.380Z,-1.90
2023-01-20T22:31:42.918Z,-1.90
2023-01-20T22:34:09.907Z,-1.90
2023-01-20T22:36:36.406Z,-1.90
2023-01-20T22:39:02.929Z,-1.90
2023-01-20T22:41:29.446Z,-2.00
2023-01-20T22:43:55.969Z,-2.00
2023-01-20T22:46:22.479Z,-1.90
2023-01-20T22:48:48.980Z,-1.90
2023-01-20T22:51:15.538Z,-1.90
2023-01-20T22:53:42.060Z,-2.10
2023-01-20T22:56:08.585Z,-2.20
2023-01-20T22:58:35.135Z,-2.20
2023-01-20T23:01:01.743Z,-2.20
2023-01-20T23:03:28.371Z,-2.20
2023-01-20T23:05:56.671Z,-2.20
2023-01-20T23:08:23.453Z,-2.20
2023-01-20T23:10:50.068Z,-2.30
2023-01-20T23:13:16.588Z,-2.20
2023-01-20T23:15:43.771Z,-2.20
2023-01-20T23:18:10.376Z,-2.10
2023-01-20T23:20:36.948Z,-2.10
2023-01-20T23:23:03.494Z,-2.20
2023-01-20T23:25:30.050Z,-2.20
2023-01-20T23:27:56.636Z,-2.20
2023-01-20T23:30:23.119Z,-2.20
2023-01-20T23:32:49.608Z,-2.20
2023-01-20T23:35:16.144Z,-2.20
2023-01-20T23:37:42.612Z,-2.10
2023-01-20T23:40:09.150Z,-2.20
2023-01-20T23:42:35.648Z,-2.10
2023-01-20T23:45:02.248Z,-2.20
2023-01-20T23:47:28.729Z,-2.10
2023-01-20T23:49:55.211Z,-2.10
2023-01-20T23:52:22.512Z,-2.10
2023-01-20T23:54:49.181Z,-2.10
2023-01-20T23:57:15.671Z,-2.10
2023-01-20T23:59:42.246Z,-2.20
